createdAt,value
2017-01-13T00:00:57.810Z,0
2017-01-13T00:02:08.526Z,0
2017-01-13T00:03:19.244Z,0
2017-01-13T00:04:29.970Z,0
2017-01-13T00:05:40.736Z,0
2017-01-13T00:06:51.481Z,0
2017-01-13T00:08:02.233Z,0
2017-01-13T00:09:12.970Z,0
2017-01-13T00:10:23.704Z,0
2017-01-13T00:11:34.429Z,0
2017-01-13T00:12:45.144Z,0
2017-01-13T00:13:55.866Z,0
2017-01-13T00:15:06.611Z,0
2017-01-13T00:16:17.346Z,0
2017-01-13T00:17:28.055Z,0
2017-01-13T00:18:38.774Z,0
2017-01-13T00:19:49.492Z,0
2017-01-13T00:21:00.234Z,0
2017-01-13T00:22:10.975Z,0
2017-01-13T00:23:21.680Z,0
2017-01-13T00:24:32.400Z,0
2017-01-13T00:25:43.127Z,0
2017-01-13T00:26:53.848Z,0
2017-01-13T00:28:04.544Z,0
2017-01-13T00:29:15.652Z,0
2017-01-13T00:30:26.401Z,0
2017-01-13T00:31:37.129Z,0
2017-01-13T00:32:47.823Z,0
2017-01-13T00:33:58.539Z,0
2017-01-13T00:35:09.258Z,0
2017-01-13T00:36:19.982Z,0
2017-01-13T00:37:30.707Z,0
2017-01-13T00:38:41.423Z,0
2017-01-13T00:39:52.158Z,0
2017-01-13T00:41:02.873Z,0
2017-01-13T00:42:13.612Z,0
2017-01-13T00:43:24.316Z,0
2017-01-13T00:44:35.038Z,0
2017-01-13T00:45:45.776Z,0
2017-01-13T00:46:56.506Z,0
2017-01-13T00:48:07.225Z,0
2017-01-13T00:49:17.927Z,0
2017-01-13T00:50:28.666Z,0
2017-01-13T00:51:39.388Z,0
2017-01-13T00:52:50.131Z,0
2017-01-13T00:54:00.853Z,0
2017-01-13T00:55:11.571Z,0
2017-01-13T00:56:22.297Z,0
2017-01-13T00:57:33.013Z,0
2017-01-13T00:58:43.744Z,0
2017-01-13T00:59:54.485Z,0
2017-01-13T01:01:05.204Z,0
2017-01-13T01:02:15.922Z,0
2017-01-13T01:03:26.639Z,0
2017-01-13T01:04:37.366Z,0
2017-01-13T01:05:48.110Z,0
2017-01-13T01:06:58.851Z,0
2017-01-13T01:08:09.585Z,0
2017-01-13T01:09:20.316Z,0
2017-01-13T01:10:31.048Z,0
2017-01-13T01:11:41.769Z,0
2017-01-13T01:12:52.507Z,0
2017-01-13T01:14:03.232Z,0
2017-01-13T01:15:13.956Z,0
2017-01-13T01:16:24.694Z,0
2017-01-13T01:17:35.441Z,0
2017-01-13T01:18:46.176Z,0
2017-01-13T01:19:56.905Z,0
2017-01-13T01:21:07.654Z,0
2017-01-13T01:22:18.372Z,0
2017-01-13T01:23:29.121Z,0
2017-01-13T01:24:39.854Z,0
2017-01-13T01:25:50.577Z,0
2017-01-13T01:27:01.318Z,0
2017-01-13T01:28:12.077Z,0
2017-01-13T01:29:22.805Z,0
2017-01-13T01:30:33.505Z,0
2017-01-13T01:31:44.215Z,0
2017-01-13T01:32:54.918Z,0
2017-01-13T01:34:05.618Z,0
2017-01-13T01:35:16.339Z,0
2017-01-13T01:36:27.084Z,0
2017-01-13T01:37:37.806Z,0
2017-01-13T01:38:48.524Z,0
2017-01-13T01:39:59.273Z,0
2017-01-13T01:41:09.990Z,0
2017-01-13T01:42:20.717Z,0
2017-01-13T01:43:31.478Z,0
2017-01-13T01:44:42.207Z,0
2017-01-13T01:45:52.924Z,0
2017-01-13T01:47:03.666Z,0
2017-01-13T01:48:14.395Z,0
2017-01-13T01:49:25.136Z,0
2017-01-13T01:50:35.859Z,0
2017-01-13T01:51:46.604Z,0
2017-01-13T01:52:57.329Z,0
2017-01-13T01:54:08.027Z,0
2017-01-13T01:55:18.742Z,0
2017-01-13T01:56:29.456Z,0
2017-01-13T01:57:40.162Z,0
2017-01-13T01:58:50.884Z,0
2017-01-13T02:00:01.647Z,0
2017-01-13T02:01:12.364Z,0
2017-01-13T02:02:23.093Z,0
2017-01-13T02:03:33.818Z,0
2017-01-13T02:04:44.538Z,0
2017-01-13T02:05:55.278Z,0
2017-01-13T02:07:06.005Z,0
2017-01-13T02:08:16.723Z,0
2017-01-13T02:09:27.461Z,0
2017-01-13T02:10:38.220Z,0
2017-01-13T02:11:48.942Z,0
2017-01-13T02:12:59.677Z,0
2017-01-13T02:14:10.382Z,0
2017-01-13T02:15:21.105Z,0
2017-01-13T02:16:31.823Z,0
2017-01-13T02:17:42.547Z,0
2017-01-13T02:18:53.321Z,0
2017-01-13T02:20:04.037Z,0
2017-01-13T02:21:14.754Z,0
2017-01-13T02:22:25.450Z,0
2017-01-13T02:23:36.170Z,0
2017-01-13T02:24:47.271Z,0
2017-01-13T02:25:58.005Z,0
2017-01-13T02:27:09.114Z,0
2017-01-13T02:28:19.848Z,0
2017-01-13T02:29:30.593Z,0
2017-01-13T02:30:41.302Z,0
2017-01-13T02:31:51.997Z,0
2017-01-13T02:33:02.689Z,0
2017-01-13T02:34:13.416Z,0
2017-01-13T02:35:24.137Z,0
2017-01-13T02:36:34.855Z,0
2017-01-13T02:37:45.573Z,0
2017-01-13T02:38:56.318Z,0
2017-01-13T02:40:07.032Z,0
2017-01-13T02:41:17.778Z,0
2017-01-13T02:42:28.484Z,0
2017-01-13T02:43:39.232Z,0
2017-01-13T02:44:49.950Z,0
2017-01-13T02:46:00.662Z,0
2017-01-13T02:47:11.770Z,0
2017-01-13T02:48:22.487Z,0
2017-01-13T02:49:33.229Z,0
2017-01-13T02:50:44.299Z,0
2017-01-13T02:51:55.281Z,0
2017-01-13T02:53:06.119Z,0
2017-01-13T02:54:16.845Z,0
2017-01-13T02:55:27.555Z,0
2017-01-13T02:56:38.278Z,0
2017-01-13T02:57:49.007Z,0
2017-01-13T02:59:00.101Z,0
2017-01-13T03:00:10.825Z,0
2017-01-13T03:01:21.522Z,0
2017-01-13T03:02:32.255Z,0
2017-01-13T03:03:42.959Z,0
2017-01-13T03:04:53.680Z,0
2017-01-13T03:06:04.376Z,0
2017-01-13T03:07:15.090Z,0
2017-01-13T03:08:25.861Z,0
2017-01-13T03:09:36.607Z,0
2017-01-13T03:10:47.712Z,0
2017-01-13T03:11:58.431Z,0
2017-01-13T03:13:09.130Z,0
2017-01-13T03:14:19.877Z,0
2017-01-13T03:15:30.595Z,0
2017-01-13T03:16:41.319Z,0
2017-01-13T03:17:52.051Z,0
2017-01-13T03:19:02.792Z,0
2017-01-13T03:20:13.513Z,0
2017-01-13T03:21:24.250Z,0
2017-01-13T03:22:34.966Z,0
2017-01-13T03:23:45.691Z,0
2017-01-13T03:24:56.416Z,0
2017-01-13T03:26:07.151Z,0
2017-01-13T03:27:17.859Z,0
2017-01-13T03:28:28.617Z,0
2017-01-13T03:29:39.353Z,0
2017-01-13T03:30:50.085Z,0
2017-01-13T03:32:00.831Z,0
2017-01-13T03:33:11.577Z,0
2017-01-13T03:34:22.289Z,0
2017-01-13T03:35:33.026Z,0
2017-01-13T03:36:43.742Z,0
2017-01-13T03:37:54.464Z,0
2017-01-13T03:39:05.210Z,0
2017-01-13T03:40:15.937Z,0
2017-01-13T03:41:26.659Z,0
2017-01-13T03:42:37.752Z,0
2017-01-13T03:43:48.472Z,0
2017-01-13T03:44:59.194Z,0
2017-01-13T03:46:09.910Z,0
2017-01-13T03:47:20.636Z,0
2017-01-13T03:48:31.332Z,0
2017-01-13T03:49:42.056Z,0
2017-01-13T03:50:52.755Z,0
2017-01-13T03:52:03.479Z,0
2017-01-13T03:53:14.197Z,0
2017-01-13T03:54:24.911Z,0
2017-01-13T03:55:35.636Z,0
2017-01-13T03:56:46.374Z,0
2017-01-13T03:57:57.092Z,0
2017-01-13T03:59:07.825Z,0
2017-01-13T04:00:18.562Z,0
2017-01-13T04:01:29.268Z,0
2017-01-13T04:02:40.000Z,0
2017-01-13T04:03:50.726Z,0
2017-01-13T04:05:01.456Z,0
2017-01-13T04:06:12.155Z,0
2017-01-13T04:07:22.898Z,0
2017-01-13T04:08:33.618Z,0
2017-01-13T04:09:44.314Z,0
2017-01-13T04:10:55.030Z,0
2017-01-13T04:12:05.755Z,0
2017-01-13T04:13:16.482Z,0
2017-01-13T04:14:27.239Z,0
2017-01-13T04:15:37.944Z,0
2017-01-13T04:16:48.639Z,0
2017-01-13T04:17:59.361Z,0
2017-01-13T04:19:10.086Z,0
2017-01-13T04:20:20.819Z,0
2017-01-13T04:21:31.547Z,0
2017-01-13T04:22:42.247Z,0
2017-01-13T04:23:52.986Z,0
2017-01-13T04:25:03.707Z,0
2017-01-13T04:26:14.410Z,0
2017-01-13T04:27:25.101Z,0
2017-01-13T04:28:35.841Z,0
2017-01-13T04:29:46.595Z,0
2017-01-13T04:30:57.333Z,0
2017-01-13T04:32:08.064Z,0
2017-01-13T04:33:18.779Z,0
2017-01-13T04:34:29.482Z,0
2017-01-13T04:35:40.221Z,0
2017-01-13T04:36:51.312Z,0
2017-01-13T04:38:02.033Z,0
2017-01-13T04:39:12.754Z,0
2017-01-13T04:40:23.458Z,0
2017-01-13T04:41:34.557Z,0
2017-01-13T04:42:45.277Z,0
2017-01-13T04:43:55.993Z,0
2017-01-13T04:45:06.718Z,0
2017-01-13T04:46:17.455Z,0
2017-01-13T04:47:28.208Z,0
2017-01-13T04:48:38.920Z,0
2017-01-13T04:49:49.643Z,0
2017-01-13T04:51:00.369Z,0
2017-01-13T04:52:11.084Z,0
2017-01-13T04:53:21.816Z,0
2017-01-13T04:54:32.533Z,0
2017-01-13T04:55:43.233Z,0
2017-01-13T04:56:53.969Z,0
2017-01-13T04:58:04.714Z,0
2017-01-13T04:59:15.440Z,0
2017-01-13T05:00:26.203Z,0
2017-01-13T05:01:36.938Z,0
2017-01-13T05:02:47.664Z,0
2017-01-13T05:03:58.381Z,0
2017-01-13T05:05:09.094Z,0
2017-01-13T05:06:19.836Z,0
2017-01-13T05:07:30.542Z,0
2017-01-13T05:08:41.278Z,0
2017-01-13T05:09:52.023Z,0
2017-01-13T05:11:02.741Z,0
2017-01-13T05:12:13.452Z,0
2017-01-13T05:13:24.207Z,0
2017-01-13T05:14:34.911Z,0
2017-01-13T05:15:45.652Z,0
2017-01-13T05:16:56.352Z,0
2017-01-13T05:18:07.077Z,0
2017-01-13T05:19:17.787Z,0
2017-01-13T05:20:28.492Z,0
2017-01-13T05:21:39.229Z,0
2017-01-13T05:22:49.975Z,0
2017-01-13T05:24:00.724Z,0
2017-01-13T05:25:11.430Z,0
2017-01-13T05:26:22.120Z,0
2017-01-13T05:27:32.848Z,0
2017-01-13T05:28:43.555Z,0
2017-01-13T05:29:54.258Z,0
2017-01-13T05:31:04.984Z,0
2017-01-13T05:32:15.700Z,0
2017-01-13T05:33:26.427Z,0
2017-01-13T05:34:37.146Z,0
2017-01-13T05:35:47.873Z,0
2017-01-13T05:36:58.589Z,0
2017-01-13T05:38:09.297Z,0
2017-01-13T05:39:20.005Z,0
2017-01-13T05:40:30.725Z,0
2017-01-13T05:41:41.463Z,0
2017-01-13T05:42:52.185Z,0
2017-01-13T05:44:02.934Z,0
2017-01-13T05:45:13.673Z,0
2017-01-13T05:46:24.399Z,0
2017-01-13T05:47:35.125Z,0
2017-01-13T05:48:45.873Z,0
2017-01-13T05:49:56.614Z,0
2017-01-13T05:51:07.335Z,0
2017-01-13T05:52:18.076Z,0
2017-01-13T05:53:28.845Z,0
2017-01-13T05:54:39.569Z,0
2017-01-13T05:55:50.300Z,0
2017-01-13T05:57:01.036Z,0
2017-01-13T05:58:12.139Z,0
2017-01-13T05:59:22.918Z,0
2017-01-13T06:00:33.652Z,0
2017-01-13T06:01:44.375Z,0
2017-01-13T06:02:55.095Z,0
2017-01-13T06:04:05.800Z,0
2017-01-13T06:05:16.529Z,0
2017-01-13T06:06:27.283Z,0
2017-01-13T06:07:38.013Z,0
2017-01-13T06:08:48.729Z,0
2017-01-13T06:09:59.446Z,0
2017-01-13T06:11:10.192Z,0
2017-01-13T06:12:20.915Z,0
2017-01-13T06:13:31.651Z,0
2017-01-13T06:14:42.362Z,0
2017-01-13T06:15:53.097Z,0
2017-01-13T06:17:03.843Z,0
2017-01-13T06:18:14.612Z,0
2017-01-13T06:19:25.723Z,0
2017-01-13T06:20:36.452Z,0
2017-01-13T06:21:47.198Z,0
2017-01-13T06:22:57.931Z,0
2017-01-13T06:24:08.654Z,0
2017-01-13T06:25:19.389Z,0
2017-01-13T06:26:30.118Z,0
2017-01-13T06:27:40.853Z,0
2017-01-13T06:28:51.602Z,0
2017-01-13T06:30:02.344Z,0
2017-01-13T06:31:13.053Z,0
2017-01-13T06:32:23.745Z,0
2017-01-13T06:33:34.466Z,0
2017-01-13T06:34:45.169Z,0
2017-01-13T06:35:55.884Z,0
2017-01-13T06:37:06.584Z,0
2017-01-13T06:38:17.319Z,0
2017-01-13T06:39:28.053Z,0
2017-01-13T06:40:38.787Z,0
2017-01-13T06:41:49.520Z,0
2017-01-13T06:43:00.257Z,0
2017-01-13T06:44:10.978Z,0
2017-01-13T06:45:21.720Z,0
2017-01-13T06:46:32.450Z,0
2017-01-13T06:47:43.146Z,0
2017-01-13T06:48:53.862Z,0
2017-01-13T06:50:04.615Z,0
2017-01-13T06:51:15.330Z,0
2017-01-13T06:52:26.054Z,0
2017-01-13T06:53:36.763Z,0
2017-01-13T06:54:47.470Z,0
2017-01-13T06:55:58.189Z,0
2017-01-13T06:57:08.918Z,0
2017-01-13T06:58:19.637Z,0
2017-01-13T06:59:30.397Z,0
2017-01-13T07:00:41.122Z,0
2017-01-13T07:01:51.851Z,0
2017-01-13T07:03:02.615Z,0
2017-01-13T07:04:13.314Z,0
2017-01-13T07:05:24.034Z,0
2017-01-13T07:06:34.752Z,0
2017-01-13T07:07:45.493Z,5
2017-01-13T07:08:56.221Z,5
2017-01-13T07:10:06.937Z,5
2017-01-13T07:11:17.636Z,5
2017-01-13T07:12:28.365Z,5
2017-01-13T07:13:39.079Z,5
2017-01-13T07:14:49.799Z,5
2017-01-13T07:16:00.516Z,5
2017-01-13T07:17:11.224Z,5
2017-01-13T07:18:21.966Z,10
2017-01-13T07:19:32.688Z,5
2017-01-13T07:20:43.407Z,10
2017-01-13T07:21:54.103Z,5
2017-01-13T07:23:05.225Z,10
2017-01-13T07:24:15.948Z,10
2017-01-13T07:25:26.639Z,10
2017-01-13T07:26:37.359Z,10
2017-01-13T07:27:48.083Z,15
2017-01-13T07:28:58.802Z,15
2017-01-13T07:30:09.520Z,15
2017-01-13T07:31:20.223Z,20
2017-01-13T07:32:30.935Z,20
2017-01-13T07:33:41.718Z,20
2017-01-13T07:34:52.435Z,15
2017-01-13T07:36:03.174Z,20
2017-01-13T07:37:13.916Z,30
2017-01-13T07:38:24.650Z,25
2017-01-13T07:39:35.369Z,30
2017-01-13T07:40:46.132Z,30
2017-01-13T07:41:56.850Z,30
2017-01-13T07:43:07.583Z,35
2017-01-13T07:44:18.368Z,35
2017-01-13T07:45:29.101Z,40
2017-01-13T07:46:40.213Z,45
2017-01-13T07:47:51.318Z,45
2017-01-13T07:49:02.052Z,50
2017-01-13T07:50:12.786Z,55
2017-01-13T07:51:23.502Z,65
2017-01-13T07:52:34.227Z,65
2017-01-13T07:53:44.985Z,65
2017-01-13T07:54:55.747Z,60
2017-01-13T07:56:06.490Z,55
2017-01-13T07:57:17.261Z,55
2017-01-13T07:58:28.000Z,55
2017-01-13T07:59:38.728Z,50
2017-01-13T08:00:49.466Z,40
2017-01-13T08:02:00.191Z,45
2017-01-13T08:03:10.895Z,45
2017-01-13T08:04:21.662Z,50
2017-01-13T08:05:32.387Z,50
2017-01-13T08:06:43.131Z,55
2017-01-13T08:07:53.863Z,65
2017-01-13T08:09:04.584Z,75
2017-01-13T08:10:15.322Z,75
2017-01-13T08:11:26.059Z,100
2017-01-13T08:12:36.806Z,120
2017-01-13T08:13:47.526Z,130
2017-01-13T08:14:58.256Z,125
2017-01-13T08:16:09.372Z,115
2017-01-13T08:17:20.124Z,105
2017-01-13T08:18:30.856Z,95
2017-01-13T08:19:41.574Z,85
2017-01-13T08:20:52.281Z,85
2017-01-13T08:22:03.007Z,85
2017-01-13T08:23:13.746Z,85
2017-01-13T08:24:24.445Z,85
2017-01-13T08:25:35.190Z,85
2017-01-13T08:26:45.885Z,95
2017-01-13T08:27:56.626Z,110
2017-01-13T08:29:07.368Z,105
2017-01-13T08:30:18.102Z,140
2017-01-13T08:31:28.866Z,120
2017-01-13T08:32:39.589Z,135
2017-01-13T08:33:50.305Z,145
2017-01-13T08:35:01.064Z,140
2017-01-13T08:36:11.780Z,160
2017-01-13T08:37:22.478Z,135
2017-01-13T08:38:33.211Z,135
2017-01-13T08:39:43.944Z,130
2017-01-13T08:40:54.655Z,130
2017-01-13T08:42:05.374Z,125
2017-01-13T08:43:16.107Z,135
2017-01-13T08:44:26.828Z,120
2017-01-13T08:45:37.549Z,125
2017-01-13T08:46:48.292Z,100
2017-01-13T08:47:59.013Z,105
2017-01-13T08:49:09.759Z,100
2017-01-13T08:50:20.521Z,85
2017-01-13T08:51:31.267Z,100
2017-01-13T08:52:41.992Z,80
2017-01-13T08:53:52.749Z,75
2017-01-13T08:55:03.484Z,65
2017-01-13T08:56:14.213Z,70
2017-01-13T08:57:24.931Z,75
2017-01-13T08:58:35.655Z,75
2017-01-13T08:59:46.753Z,75
2017-01-13T09:00:57.486Z,65
2017-01-13T09:02:08.231Z,75
2017-01-13T09:03:18.986Z,70
2017-01-13T09:04:29.709Z,70
2017-01-13T09:05:40.432Z,85
2017-01-13T09:06:51.191Z,95
2017-01-13T09:08:01.921Z,95
2017-01-13T09:09:12.641Z,90
2017-01-13T09:10:23.366Z,85
2017-01-13T09:11:34.107Z,85
2017-01-13T09:12:44.812Z,95
2017-01-13T09:13:55.534Z,110
2017-01-13T09:15:06.299Z,120
2017-01-13T09:16:17.034Z,120
2017-01-13T09:17:27.766Z,105
2017-01-13T09:18:38.501Z,95
2017-01-13T09:19:49.627Z,105
2017-01-13T09:21:00.354Z,110
2017-01-13T09:22:11.073Z,115
2017-01-13T09:23:21.814Z,125
2017-01-13T09:24:32.559Z,130
2017-01-13T09:25:43.292Z,130
2017-01-13T09:26:54.012Z,130
2017-01-13T09:28:04.728Z,140
2017-01-13T09:29:15.452Z,145
2017-01-13T09:30:26.219Z,155
2017-01-13T09:31:36.944Z,145
2017-01-13T09:32:47.662Z,160
2017-01-13T09:33:58.787Z,155
2017-01-13T09:35:09.906Z,140
2017-01-13T09:36:20.624Z,115
2017-01-13T09:37:31.365Z,140
2017-01-13T09:38:42.470Z,120
2017-01-13T09:39:53.188Z,120
2017-01-13T09:41:04.311Z,115
2017-01-13T09:42:15.047Z,115
2017-01-13T09:43:25.751Z,110
2017-01-13T09:44:36.481Z,105
2017-01-13T09:45:47.193Z,95
2017-01-13T09:46:57.916Z,95
2017-01-13T09:48:08.634Z,95
2017-01-13T09:49:19.351Z,100
2017-01-13T09:50:30.097Z,85
2017-01-13T09:51:40.850Z,100
2017-01-13T09:52:51.573Z,95
2017-01-13T09:54:02.289Z,100
2017-01-13T09:55:12.986Z,85
2017-01-13T09:56:23.727Z,85
2017-01-13T09:57:34.456Z,85
2017-01-13T09:58:45.198Z,85
2017-01-13T09:59:55.899Z,75
2017-01-13T10:01:06.616Z,85
2017-01-13T10:02:17.382Z,85
2017-01-13T10:03:28.103Z,100
2017-01-13T10:04:38.834Z,110
2017-01-13T10:05:49.550Z,125
2017-01-13T10:07:00.277Z,130
2017-01-13T10:08:11.398Z,140
2017-01-13T10:09:22.133Z,155
2017-01-13T10:10:32.881Z,155
2017-01-13T10:11:43.630Z,155
2017-01-13T10:12:54.331Z,160
2017-01-13T10:14:05.071Z,155
2017-01-13T10:15:16.183Z,145
2017-01-13T10:16:26.940Z,140
2017-01-13T10:17:37.704Z,155
2017-01-13T10:18:48.450Z,160
2017-01-13T10:19:59.176Z,135
2017-01-13T10:21:09.914Z,125
2017-01-13T10:22:20.659Z,135
2017-01-13T10:23:31.391Z,120
2017-01-13T10:24:42.101Z,125
2017-01-13T10:25:52.829Z,130
2017-01-13T10:27:03.529Z,145
2017-01-13T10:28:14.275Z,160
2017-01-13T10:29:24.997Z,160
2017-01-13T10:30:35.722Z,180
2017-01-13T10:31:46.454Z,185
2017-01-13T10:32:57.175Z,210
2017-01-13T10:34:07.903Z,205
2017-01-13T10:35:18.596Z,205
2017-01-13T10:36:29.321Z,205
2017-01-13T10:37:40.055Z,220
2017-01-13T10:38:50.760Z,225
2017-01-13T10:40:01.480Z,230
2017-01-13T10:41:12.203Z,225
2017-01-13T10:42:22.914Z,245
2017-01-13T10:43:33.660Z,240
2017-01-13T10:44:44.368Z,245
2017-01-13T10:45:55.080Z,290
2017-01-13T10:47:05.806Z,250
2017-01-13T10:48:16.507Z,290
2017-01-13T10:49:27.249Z,295
2017-01-13T10:50:37.991Z,285
2017-01-13T10:51:48.714Z,320
2017-01-13T10:52:59.444Z,320
2017-01-13T10:54:10.186Z,300
2017-01-13T10:55:20.905Z,305
2017-01-13T10:56:31.644Z,290
2017-01-13T10:57:42.394Z,245
2017-01-13T10:58:53.096Z,295
2017-01-13T11:00:03.854Z,275
2017-01-13T11:01:14.600Z,280
2017-01-13T11:02:25.323Z,310
2017-01-13T11:03:36.075Z,295
2017-01-13T11:04:46.825Z,270
2017-01-13T11:05:57.559Z,310
2017-01-13T11:07:08.283Z,285
2017-01-13T11:08:19.001Z,280
2017-01-13T11:09:29.731Z,290
2017-01-13T11:10:40.443Z,270
2017-01-13T11:11:51.202Z,295
2017-01-13T11:13:01.939Z,275
2017-01-13T11:14:12.667Z,275
2017-01-13T11:15:23.381Z,305
2017-01-13T11:16:34.148Z,305
2017-01-13T11:17:44.898Z,315
2017-01-13T11:18:55.621Z,255
2017-01-13T11:20:06.351Z,250
2017-01-13T11:21:17.869Z,245
2017-01-13T11:22:28.589Z,250
2017-01-13T11:23:39.327Z,230
2017-01-13T11:24:50.053Z,245
2017-01-13T11:26:00.773Z,225
2017-01-13T11:27:11.495Z,215
2017-01-13T11:28:22.221Z,230
2017-01-13T11:29:32.991Z,210
2017-01-13T11:30:43.743Z,235
2017-01-13T11:31:54.484Z,235
2017-01-13T11:33:05.206Z,250
2017-01-13T11:34:15.921Z,240
2017-01-13T11:35:26.646Z,260
2017-01-13T11:36:37.364Z,260
2017-01-13T11:37:48.102Z,235
2017-01-13T11:38:58.835Z,240
2017-01-13T11:40:09.537Z,265
2017-01-13T11:41:20.276Z,240
2017-01-13T11:42:30.973Z,225
2017-01-13T11:43:41.718Z,215
2017-01-13T11:44:52.456Z,240
2017-01-13T11:46:03.181Z,255
2017-01-13T11:47:13.927Z,275
2017-01-13T11:48:24.667Z,285
2017-01-13T11:49:35.411Z,260
2017-01-13T11:50:46.145Z,250
2017-01-13T11:51:56.861Z,210
2017-01-13T11:53:07.565Z,245
2017-01-13T11:54:18.345Z,240
2017-01-13T11:55:29.095Z,245
2017-01-13T11:56:39.842Z,270
2017-01-13T11:57:50.587Z,250
2017-01-13T11:59:01.333Z,225
2017-01-13T12:00:12.064Z,265
2017-01-13T12:01:22.800Z,265
2017-01-13T12:02:33.529Z,240
2017-01-13T12:03:44.275Z,225
2017-01-13T12:04:55.038Z,215
2017-01-13T12:06:05.765Z,220
2017-01-13T12:07:16.509Z,210
2017-01-13T12:08:27.224Z,235
2017-01-13T12:09:37.954Z,235
2017-01-13T12:10:48.674Z,220
2017-01-13T12:11:59.372Z,215
2017-01-13T12:13:10.086Z,165
2017-01-13T12:14:20.790Z,140
2017-01-13T12:15:31.510Z,120
2017-01-13T12:16:42.245Z,105
2017-01-13T12:17:53.376Z,110
2017-01-13T12:19:04.487Z,110
2017-01-13T12:20:15.218Z,120
2017-01-13T12:21:25.937Z,115
2017-01-13T12:22:36.664Z,165
2017-01-13T12:23:47.396Z,180
2017-01-13T12:24:58.149Z,165
2017-01-13T12:26:08.887Z,190
2017-01-13T12:27:19.609Z,190
2017-01-13T12:28:30.338Z,195
2017-01-13T12:29:41.054Z,185
2017-01-13T12:30:51.786Z,190
2017-01-13T12:32:02.527Z,180
2017-01-13T12:33:13.293Z,175
2017-01-13T12:34:23.996Z,170
2017-01-13T12:35:34.718Z,205
2017-01-13T12:36:45.435Z,195
2017-01-13T12:37:56.173Z,190
2017-01-13T12:39:06.912Z,185
2017-01-13T12:40:18.028Z,175
2017-01-13T12:41:28.725Z,145
2017-01-13T12:42:39.461Z,155
2017-01-13T12:43:50.188Z,140
2017-01-13T12:45:00.900Z,135
2017-01-13T12:46:11.647Z,140
2017-01-13T12:47:22.378Z,155
2017-01-13T12:48:33.071Z,145
2017-01-13T12:49:43.810Z,155
2017-01-13T12:50:54.538Z,150
2017-01-13T12:52:05.261Z,155
2017-01-13T12:53:15.983Z,155
2017-01-13T12:54:26.746Z,135
2017-01-13T12:55:37.480Z,145
2017-01-13T12:56:48.198Z,135
2017-01-13T12:57:58.919Z,130
2017-01-13T12:59:09.651Z,135
2017-01-13T13:00:20.398Z,135
2017-01-13T13:01:31.154Z,140
2017-01-13T13:02:41.874Z,135
2017-01-13T13:03:52.996Z,115
2017-01-13T13:05:03.742Z,125
2017-01-13T13:06:14.481Z,125
2017-01-13T13:07:25.228Z,135
2017-01-13T13:08:35.984Z,135
2017-01-13T13:09:46.740Z,125
2017-01-13T13:10:57.472Z,155
2017-01-13T13:12:08.194Z,150
2017-01-13T13:13:18.916Z,155
2017-01-13T13:14:29.658Z,160
2017-01-13T13:15:40.396Z,175
2017-01-13T13:16:51.108Z,175
2017-01-13T13:18:01.839Z,180
2017-01-13T13:19:12.593Z,160
2017-01-13T13:20:23.687Z,160
2017-01-13T13:21:34.411Z,160
2017-01-13T13:22:45.134Z,155
2017-01-13T13:23:55.876Z,130
2017-01-13T13:25:06.601Z,125
2017-01-13T13:26:17.338Z,120
2017-01-13T13:27:28.081Z,125
2017-01-13T13:28:38.829Z,110
2017-01-13T13:29:49.580Z,100
2017-01-13T13:31:00.294Z,110
2017-01-13T13:32:11.018Z,115
2017-01-13T13:33:21.722Z,95
2017-01-13T13:34:32.460Z,90
2017-01-13T13:35:43.178Z,85
2017-01-13T13:36:53.908Z,85
2017-01-13T13:38:04.632Z,85
2017-01-13T13:39:15.756Z,95
2017-01-13T13:40:26.469Z,80
2017-01-13T13:41:37.166Z,80
2017-01-13T13:42:48.291Z,80
2017-01-13T13:43:59.011Z,90
2017-01-13T13:45:09.728Z,80
2017-01-13T13:46:20.453Z,75
2017-01-13T13:47:31.219Z,80
2017-01-13T13:48:41.921Z,90
2017-01-13T13:49:52.628Z,95
2017-01-13T13:51:03.307Z,85
2017-01-13T13:52:14.024Z,70
2017-01-13T13:53:24.767Z,85
2017-01-13T13:54:35.487Z,70
2017-01-13T13:55:46.219Z,65
2017-01-13T13:56:56.947Z,60
2017-01-13T13:58:07.700Z,60
2017-01-13T13:59:18.404Z,65
2017-01-13T14:00:29.124Z,60
2017-01-13T14:01:39.846Z,55
2017-01-13T14:02:50.595Z,60
2017-01-13T14:04:01.296Z,60
2017-01-13T14:05:12.061Z,60
2017-01-13T14:06:22.808Z,60
2017-01-13T14:07:33.550Z,60
2017-01-13T14:08:44.265Z,50
2017-01-13T14:09:54.974Z,50
2017-01-13T14:11:05.690Z,50
2017-01-13T14:12:16.384Z,50
2017-01-13T14:13:27.101Z,50
2017-01-13T14:14:37.857Z,45
2017-01-13T14:15:48.600Z,50
2017-01-13T14:16:59.321Z,40
2017-01-13T14:18:10.062Z,50
2017-01-13T14:19:20.785Z,35
2017-01-13T14:20:31.508Z,35
2017-01-13T14:21:42.244Z,35
2017-01-13T14:22:52.977Z,35
2017-01-13T14:24:03.715Z,25
2017-01-13T14:25:14.445Z,25
2017-01-13T14:26:25.169Z,25
2017-01-13T14:27:35.902Z,25
2017-01-13T14:28:46.631Z,25
2017-01-13T14:29:57.342Z,25
2017-01-13T14:31:08.448Z,20
2017-01-13T14:32:19.174Z,20
2017-01-13T14:33:29.915Z,25
2017-01-13T14:34:40.658Z,25
2017-01-13T14:35:51.372Z,20
2017-01-13T14:37:02.142Z,20
2017-01-13T14:38:12.874Z,15
2017-01-13T14:39:23.614Z,20
2017-01-13T14:40:34.360Z,20
2017-01-13T14:41:45.105Z,15
2017-01-13T14:42:55.851Z,15
2017-01-13T14:44:06.576Z,15
2017-01-13T14:45:17.319Z,15
2017-01-13T14:46:28.041Z,15
2017-01-13T14:47:38.790Z,15
2017-01-13T14:48:49.496Z,15
2017-01-13T14:50:00.211Z,15
2017-01-13T14:51:10.937Z,15
2017-01-13T14:52:21.653Z,15
2017-01-13T14:53:32.371Z,15
2017-01-13T14:54:43.101Z,15
2017-01-13T14:55:53.829Z,15
2017-01-13T14:57:04.564Z,10
2017-01-13T14:58:15.304Z,10
2017-01-13T14:59:26.009Z,10
2017-01-13T15:00:36.739Z,10
2017-01-13T15:01:47.470Z,10
2017-01-13T15:02:58.188Z,10
2017-01-13T15:04:08.901Z,10
2017-01-13T15:05:19.658Z,10
2017-01-13T15:06:30.401Z,5
2017-01-13T15:07:41.126Z,5
2017-01-13T15:08:51.896Z,5
2017-01-13T15:10:02.990Z,5
2017-01-13T15:11:13.703Z,5
2017-01-13T15:12:24.460Z,5
2017-01-13T15:13:35.195Z,5
2017-01-13T15:14:45.906Z,0
2017-01-13T15:15:57.013Z,0
2017-01-13T15:17:07.749Z,0
2017-01-13T15:18:18.467Z,0
2017-01-13T15:19:29.241Z,0
2017-01-13T15:20:39.953Z,0
2017-01-13T15:21:51.052Z,0
2017-01-13T15:23:01.779Z,0
2017-01-13T15:24:12.509Z,0
2017-01-13T15:25:23.255Z,0
2017-01-13T15:26:33.966Z,0
2017-01-13T15:27:44.709Z,0
2017-01-13T15:28:55.447Z,0
2017-01-13T15:30:06.176Z,0
2017-01-13T15:31:16.913Z,0
2017-01-13T15:32:27.646Z,0
2017-01-13T15:33:38.389Z,0
2017-01-13T15:34:49.105Z,0
2017-01-13T15:35:59.828Z,0
2017-01-13T15:37:10.980Z,0
2017-01-13T15:38:21.697Z,0
2017-01-13T15:39:32.414Z,0
2017-01-13T15:40:43.156Z,0
2017-01-13T15:41:53.862Z,0
2017-01-13T15:43:04.570Z,0
2017-01-13T15:44:15.307Z,0
2017-01-13T15:45:26.021Z,0
2017-01-13T15:46:36.737Z,0
2017-01-13T15:47:47.454Z,0
2017-01-13T15:48:58.216Z,0
2017-01-13T15:50:08.945Z,0
2017-01-13T15:51:19.652Z,0
2017-01-13T15:52:30.399Z,0
2017-01-13T15:53:41.137Z,0
2017-01-13T15:54:51.859Z,0
2017-01-13T15:56:02.576Z,0
2017-01-13T15:57:13.298Z,0
2017-01-13T15:58:24.031Z,0
2017-01-13T15:59:34.782Z,0
2017-01-13T16:00:45.914Z,0
2017-01-13T16:01:56.619Z,0
2017-01-13T16:03:07.338Z,0
2017-01-13T16:04:18.059Z,0
2017-01-13T16:05:28.781Z,0
2017-01-13T16:06:39.515Z,0
2017-01-13T16:07:50.244Z,0
2017-01-13T16:09:00.972Z,0
2017-01-13T16:10:11.703Z,0
2017-01-13T16:11:22.437Z,0
2017-01-13T16:12:33.178Z,0
2017-01-13T16:13:43.900Z,0
2017-01-13T16:14:54.624Z,0
2017-01-13T16:16:05.351Z,0
2017-01-13T16:17:16.091Z,0
2017-01-13T16:18:26.835Z,0
2017-01-13T16:19:37.625Z,0
2017-01-13T16:20:48.345Z,0
2017-01-13T16:21:59.053Z,0
2017-01-13T16:23:09.792Z,0
2017-01-13T16:24:20.516Z,0
2017-01-13T16:25:31.236Z,0
2017-01-13T16:26:41.955Z,0
2017-01-13T16:27:52.694Z,0
2017-01-13T16:29:03.406Z,0
2017-01-13T16:30:14.145Z,0
2017-01-13T16:31:24.871Z,0
2017-01-13T16:32:35.560Z,0
2017-01-13T16:33:46.281Z,0
2017-01-13T16:34:57.002Z,0
2017-01-13T16:36:07.698Z,0
2017-01-13T16:37:18.420Z,0
2017-01-13T16:38:29.165Z,0
2017-01-13T16:39:39.865Z,0
2017-01-13T16:40:50.557Z,0
2017-01-13T16:42:01.296Z,0
2017-01-13T16:43:12.420Z,0
2017-01-13T16:44:23.153Z,0
2017-01-13T16:45:33.919Z,0
2017-01-13T16:46:44.655Z,0
2017-01-13T16:47:55.359Z,0
2017-01-13T16:49:06.085Z,0
2017-01-13T16:50:16.796Z,0
2017-01-13T16:51:27.535Z,0
2017-01-13T16:52:38.264Z,0
2017-01-13T16:53:49.009Z,0
2017-01-13T16:54:59.727Z,0
2017-01-13T16:56:10.835Z,0
2017-01-13T16:57:21.569Z,0
2017-01-13T16:58:32.277Z,0
2017-01-13T16:59:43.018Z,0